Time;durP1;ratioP1;P1;durP2;ratioP2;P2;SDS_P1;SDS_P2;PMS_P1;PMS_P2;Temp;Humidity;BMP_temperature;BMP_pressure;BME280_temperature;BME280_humidity;BME280_pressure;Samples;Min_cycle;Max_cycle;Signal;HPM_P1;HPM_P2
2022/05/25 00:00:00;;;;;;;2.72;1.15;;;;;;;12.69;76.41;101278.97;5019700;28;20221;-77
2022/05/25 00:02:26;;;;;;;2.80;1.17;;;;;;;12.68;75.98;101280.75;5037919;28;20029;-77
2022/05/25 00:04:53;;;;;;;0.73;0.73;;;;;;;12.68;76.26;101277.28;5038795;28;20388;-77
2022/05/25 00:07:20;;;;;;;2.67;1.15;;;;;;;12.67;76.51;101281.66;5037507;28;20421;-77
2022/05/25 00:09:46;;;;;;;1.15;0.90;;;;;;;12.67;76.75;101283.44;5038345;28;20044;-77
2022/05/25 00:12:13;;;;;;;1.75;1.27;;;;;;;12.67;76.65;101286.06;5003833;28;20033;-77
2022/05/25 00:14:38;;;;;;;1.98;1.00;;;;;;;12.66;76.38;101284.34;5020119;28;20049;-77
2022/05/25 00:17:04;;;;;;;1.50;1.15;;;;;;;12.65;76.66;101285.28;5020308;28;20280;-77
2022/05/25 00:22:14;;;;;;;3.30;0.90;;;;;;;12.65;76.97;101291.38;5027290;28;20060;-77
2022/05/25 00:24:39;;;;;;;0.70;0.70;;;;;;;12.65;76.82;101291.38;5037328;28;20037;-77
2022/05/25 00:27:05;;;;;;;2.50;1.20;;;;;;;12.65;76.81;101287.91;5037583;28;20307;-77
2022/05/25 00:29:31;;;;;;;1.67;0.60;;;;;;;12.65;77.18;101288.75;5037431;28;20041;-77
2022/05/25 00:31:56;;;;;;;1.10;0.70;;;;;;;12.65;77.00;101288.75;5020083;28;20036;-77
2022/05/25 00:34:22;;;;;;;1.90;0.82;;;;;;;12.66;77.40;101292.22;5019891;28;20037;-77
2022/05/25 00:36:47;;;;;;;1.65;1.00;;;;;;;12.65;77.40;101288.75;5037737;28;20044;-77
2022/05/25 00:39:12;;;;;;;1.83;0.70;;;;;;;12.65;76.97;101290.53;5020139;28;20259;-77
2022/05/25 00:41:38;;;;;;;1.85;0.80;;;;;;;12.66;77.20;101290.47;5037371;28;20058;-77
2022/05/25 00:44:05;;;;;;;1.75;0.88;;;;;;;12.66;77.31;101298.38;5043285;28;20048;-77
2022/05/25 00:46:32;;;;;;;1.52;0.70;;;;;;;12.65;77.08;101296.63;5007911;28;20100;-77
2022/05/25 00:49:04;;;;;;;2.25;0.93;;;;;;;12.66;77.11;101297.47;5024435;28;20047;-77
2022/05/25 00:51:48;;;;;;;3.50;1.05;;;;;;;12.67;77.06;101305.31;5034543;28;20067;-77
2022/05/25 00:54:19;;;;;;;4.47;1.27;;;;;;;12.67;77.04;101307.09;5015132;28;20349;-77
2022/05/25 00:56:48;;;;;;;2.85;1.10;;;;;;;12.66;77.31;101308.88;5024159;28;20049;-77
2022/05/25 00:59:18;;;;;;;;;;;;;;;12.65;77.14;101316.81;5057309;28;20279;-77
2022/05/25 01:01:43;;;;;;;5.18;1.30;;;;;;;12.63;77.31;101314.25;5028489;28;19909;-77
2022/05/25 01:04:10;;;;;;;1.30;0.90;;;;;;;12.62;77.68;101312.53;5017612;28;20109;-77
2022/05/25 01:06:57;;;;;;;1.40;0.82;;;;;;;12.63;77.47;101310.78;5033456;28;20316;-77
2022/05/25 01:09:43;;;;;;;1.17;0.70;;;;;;;12.63;77.63;101310.78;5026880;28;20037;-77
2022/05/25 01:12:11;;;;;;;2.20;1.10;;;;;;;12.61;77.62;101308.22;5026669;28;20386;-77
2022/05/25 01:15:23;;;;;;;2.55;0.98;;;;;;;12.62;77.77;101307.28;5021903;28;20118;-77
2022/05/25 01:18:10;;;;;;;1.38;0.82;;;;;;;12.62;77.59;101303.78;5027826;28;20056;-77
2022/05/25 01:20:45;;;;;;;2.42;0.90;;;;;;;12.61;77.69;101302.94;5026321;28;20392;-77
2022/05/25 01:23:45;;;;;;;1.67;1.20;;;;;;;12.61;77.53;101313.47;5014584;28;20396;-77
2022/05/25 01:26:35;;;;;;;1.30;1.05;;;;;;;12.62;77.58;101311.69;5040835;28;20037;-77
2022/05/25 01:29:22;;;;;;;4.05;1.67;;;;;;;12.61;77.73;101307.34;5022468;28;20079;-77
2022/05/25 01:31:59;;;;;;;4.22;1.63;;;;;;;12.60;77.91;101310.88;5021373;28;20041;-77
2022/05/25 01:34:37;;;;;;;3.40;1.85;;;;;;;12.60;77.51;101308.25;5029605;28;20041;-77
2022/05/25 01:37:31;;;;;;;2.22;1.52;;;;;;;12.59;77.80;101317.94;5028124;28;20076;-77
2022/05/25 01:40:08;;;;;;;2.53;1.50;;;;;;;12.61;77.83;101323.13;4999180;28;20096;-77
2022/05/25 01:42:43;;;;;;;2.55;1.90;;;;;;;12.61;77.54;101312.63;5050188;28;20087;-77
2022/05/25 01:45:09;;;;;;;5.20;2.10;;;;;;;12.61;77.76;101313.47;5023081;28;20044;-77
2022/05/25 01:47:39;;;;;;;5.10;2.53;;;;;;;12.61;77.68;101308.22;5020815;28;20057;-77
2022/05/25 01:50:10;;;;;;;5.22;2.45;;;;;;;12.61;77.95;101318.72;5005389;28;20033;-77
2022/05/25 01:52:44;;;;;;;6.50;2.63;;;;;;;12.61;78.23;101321.34;5031705;28;20331;-77
2022/05/25 01:55:18;;;;;;;2.40;2.20;;;;;;;12.62;77.97;101324.81;5002894;28;20042;-77
2022/05/25 01:57:50;;;;;;;3.58;2.45;;;;;;;12.60;78.29;101322.25;5002836;28;20034;-77
2022/05/25 02:00:36;;;;;;;2.63;2.42;;;;;;;12.61;78.16;101325.75;5020341;28;20029;-77
2022/05/25 02:06:19;;;;;;;4.68;2.60;;;;;;;12.60;78.13;101330.13;5024502;28;20083;-77
2022/05/25 02:09:15;;;;;;;2.55;2.35;;;;;;;12.60;78.01;101329.28;5021415;28;20061;-77
2022/05/25 02:11:44;;;;;;;2.33;2.13;;;;;;;12.60;77.96;101331.91;5020157;28;20038;-77
2022/05/25 02:14:17;;;;;;;;;;;;;;;12.59;78.04;101324.97;5025632;28;20045;-77
2022/05/25 02:17:21;;;;;;;3.65;2.58;;;;;;;12.59;78.00;101328.44;5021802;28;19917;-77
2022/05/25 02:19:56;;;;;;;4.03;2.53;;;;;;;12.57;78.13;101325.03;5013909;28;20049;-77
2022/05/25 02:22:29;;;;;;;3.63;2.25;;;;;;;12.57;78.04;101332.03;5023635;28;20026;-77
2022/05/25 02:25:44;;;;;;;3.42;2.85;;;;;;;12.56;78.23;101328.56;5019703;28;20034;-74
2022/05/25 02:28:15;;;;;;;3.97;2.85;;;;;;;12.55;78.49;101334.75;5014524;28;20064;-73
2022/05/25 02:30:46;;;;;;;2.83;2.63;;;;;;;12.55;78.57;101342.63;5019362;28;20042;-73
2022/05/25 02:33:20;;;;;;;4.57;3.13;;;;;;;12.54;78.39;101338.28;5018451;28;20109;-73
2022/05/25 02:35:47;;;;;;;5.35;2.97;;;;;;;12.54;78.63;101332.19;5019169;28;20042;-73
2022/05/25 02:38:13;;;;;;;6.03;2.97;;;;;;;12.54;78.46;101340.06;5000796;28;20061;-73
2022/05/25 02:40:40;;;;;;;9.45;3.30;;;;;;;12.53;78.67;101336.56;5018755;28;20067;-73
2022/05/25 02:43:07;;;;;;;3.85;3.10;;;;;;;12.54;78.59;101334.81;5005326;28;20151;-73
2022/05/25 02:45:34;;;;;;;5.07;3.00;;;;;;;12.52;78.54;101332.22;5038108;28;20040;-73
2022/05/25 02:48:00;;;;;;;8.75;3.35;;;;;;;12.52;78.60;101340.13;5038441;28;20302;-73
2022/05/25 02:50:26;;;;;;;6.53;3.47;;;;;;;12.50;78.98;101334.06;5020468;28;20037;-73
2022/05/25 02:52:51;;;;;;;4.20;3.45;;;;;;;12.50;78.72;101339.31;5039036;28;20033;-73
2022/05/25 02:55:18;;;;;;;3.50;3.10;;;;;;;12.49;78.79;101342.84;5038220;28;20040;-74
2022/05/25 02:57:43;;;;;;;4.53;3.33;;;;;;;12.48;78.71;101347.25;5038943;28;20036;-74
2022/05/25 03:00:09;;;;;;;4.63;3.45;;;;;;;12.48;79.07;101352.53;5038609;28;20316;-73
2022/05/25 03:02:35;;;;;;;7.45;4.18;;;;;;;12.46;78.92;101351.72;5042271;28;20041;-73
2022/05/25 03:05:01;;;;;;;4.80;3.38;;;;;;;12.46;79.17;101349.09;5045696;28;20045;-73
2022/05/25 03:07:26;;;;;;;6.18;3.60;;;;;;;12.45;78.95;101359.66;5038321;28;20060;-74
2022/05/25 03:09:52;;;;;;;6.05;4.10;;;;;;;12.45;79.14;101362.28;5051791;28;20233;-73
2022/05/25 03:12:17;;;;;;;6.82;4.32;;;;;;;12.44;79.04;101357.94;5037628;28;20064;-73
2022/05/25 03:14:43;;;;;;;8.02;4.10;;;;;;;12.42;79.15;101352.75;5037927;28;20030;-74
2022/05/25 03:17:12;;;;;;;8.55;4.10;;;;;;;12.42;79.22;101359.78;5037761;28;20037;-73
2022/05/25 03:19:42;;;;;;;4.20;3.78;;;;;;;12.41;79.07;101369.44;5020113;28;20040;-73
2022/05/25 03:22:08;;;;;;;5.85;4.15;;;;;;;12.40;79.36;101372.13;5038046;28;20040;-73
2022/05/25 03:24:34;;;;;;;3.95;3.63;;;;;;;12.39;79.12;101376.53;5019415;28;20292;-73
2022/05/25 03:27:00;;;;;;;4.10;3.70;;;;;;;12.38;79.27;101371.34;5036701;28;20265;-73
2022/05/25 03:29:26;;;;;;;4.65;3.72;;;;;;;12.38;79.05;101384.47;5034904;28;20048;-73
2022/05/25 03:31:52;;;;;;;4.45;4.05;;;;;;;12.37;79.32;101378.38;5034503;28;20067;-73
2022/05/25 03:34:18;;;;;;;4.40;4.00;;;;;;;12.37;79.60;101386.25;5036480;28;20264;-73
2022/05/25 03:36:45;;;;;;;5.13;3.97;;;;;;;12.37;79.15;101377.50;5041700;28;20308;-73
2022/05/25 03:39:10;;;;;;;4.50;4.10;;;;;;;12.36;79.33;101383.69;5036166;28;20116;-73
2022/05/25 03:41:35;;;;;;;4.53;4.03;;;;;;;12.36;79.53;101389.78;4990380;28;20084;-73
2022/05/25 03:44:02;;;;;;;4.80;4.35;;;;;;;12.36;79.42;101388.94;5016955;28;20124;-73
2022/05/25 03:46:27;;;;;;;5.22;4.72;;;;;;;12.36;79.83;101388.94;5015557;28;20068;-74
2022/05/25 03:48:53;;;;;;;5.47;4.38;;;;;;;12.35;79.67;101380.22;5016664;28;20037;-73
2022/05/25 03:51:18;;;;;;;4.28;3.90;;;;;;;12.35;79.74;101385.47;5018885;28;20060;-73
2022/05/25 03:53:43;;;;;;;5.10;4.47;;;;;;;12.36;79.89;101387.16;5017119;28;20049;-73
2022/05/25 03:56:09;;;;;;;5.55;4.63;;;;;;;12.37;79.95;101377.50;4998719;28;20053;-73
2022/05/25 03:58:35;;;;;;;4.32;3.92;;;;;;;12.36;79.93;101378.44;4998936;28;20041;-73
2022/05/25 04:01:00;;;;;;;6.38;4.20;;;;;;;12.35;80.00;101380.22;5022213;28;20268;-74
2022/05/25 04:03:25;;;;;;;5.00;4.53;;;;;;;12.37;79.92;101385.38;4981910;28;20049;-73
2022/05/25 04:05:51;;;;;;;5.57;4.45;;;;;;;12.37;80.12;101381.00;4979398;28;20034;-74
2022/05/25 04:08:16;;;;;;;8.25;4.75;;;;;;;12.36;80.12;101384.53;5001947;28;20065;-73
2022/05/25 04:10:42;;;;;;;6.22;4.90;;;;;;;12.37;80.29;101390.63;5016346;28;20056;-73
2022/05/25 04:13:07;;;;;;;5.05;4.63;;;;;;;12.37;79.87;101391.50;4998582;28;20282;-73
2022/05/25 04:15:34;;;;;;;5.65;5.15;;;;;;;12.36;80.11;101389.78;5015719;28;20056;-73
2022/05/25 04:17:59;;;;;;;6.32;4.85;;;;;;;12.35;79.90;101385.47;5000387;28;20026;-73
2022/05/25 04:20:26;;;;;;;6.32;5.00;;;;;;;12.36;80.13;101387.16;5014146;28;20038;-73
2022/05/25 04:22:52;;;;;;;5.18;4.70;;;;;;;12.37;79.96;101396.75;5016268;28;20046;-74
2022/05/25 04:25:20;;;;;;;5.10;4.65;;;;;;;12.37;79.65;101388.88;5014236;28;20092;-73
2022/05/25 04:27:48;;;;;;;5.78;4.45;;;;;;;12.38;79.88;101387.09;5016996;28;20160;-73
2022/05/25 04:30:17;;;;;;;5.15;4.65;;;;;;;12.39;79.83;101387.03;5003296;28;20049;-73
2022/05/25 04:32:43;;;;;;;4.95;4.50;;;;;;;12.39;79.94;101394.06;5020242;28;20045;-73
2022/05/25 04:35:11;;;;;;;6.20;5.07;;;;;;;12.39;80.16;101391.44;5016269;28;20038;-73
2022/05/25 04:37:49;;;;;;;5.38;4.78;;;;;;;12.38;79.96;101384.47;5015969;28;20047;-74
2022/05/25 04:40:20;;;;;;;5.68;4.82;;;;;;;12.38;79.95;101390.56;4999910;28;20088;-74
2022/05/25 04:42:45;;;;;;;5.68;4.90;;;;;;;12.39;79.99;101397.53;5015945;28;20068;-74
2022/05/25 04:45:12;;;;;;;5.97;5.25;;;;;;;12.39;80.28;101391.44;5052110;28;20045;-73
2022/05/25 04:47:37;;;;;;;4.90;4.50;;;;;;;12.38;80.08;101382.69;5053044;28;20020;-73
2022/05/25 04:50:07;;;;;;;6.40;4.57;;;;;;;12.39;79.88;101386.19;5030256;28;20048;-73
2022/05/25 04:52:33;;;;;;;7.55;5.32;;;;;;;12.39;80.01;101389.66;5036287;28;20048;-73
2022/05/25 04:54:59;;;;;;;5.18;4.68;;;;;;;12.38;80.05;101387.94;5038449;28;20120;-73
2022/05/25 04:57:27;;;;;;;6.38;5.13;;;;;;;12.39;80.20;101387.03;5046079;28;20108;-73
2022/05/25 04:59:55;;;;;;;10.00;5.22;;;;;;;12.40;80.19;101385.25;5039355;28;20055;-73
2022/05/25 05:02:21;;;;;;;6.40;5.00;;;;;;;12.40;79.93;101383.47;5017014;28;20108;-73
2022/05/25 05:04:47;;;;;;;6.03;5.40;;;;;;;12.40;79.90;101378.22;5036501;28;20036;-73
2022/05/25 05:07:14;;;;;;;5.28;4.65;;;;;;;12.42;79.97;101383.41;5037557;28;20032;-73
2022/05/25 05:09:41;;;;;;;7.07;5.55;;;;;;;12.41;80.29;101385.19;5036661;28;20038;-73
2022/05/25 05:12:08;;;;;;;6.82;5.40;;;;;;;12.41;80.50;101395.72;5021199;28;20069;-73
2022/05/25 05:14:34;;;;;;;5.65;5.05;;;;;;;12.42;80.46;101394.78;5043620;28;20033;-73
2022/05/25 05:17:02;;;;;;;5.25;4.82;;;;;;;12.43;80.50;101391.25;5044890;28;20275;-74
2022/05/25 05:19:28;;;;;;;8.70;5.00;;;;;;;12.43;80.45;101398.28;5045961;28;20080;-74
2022/05/25 05:21:55;;;;;;;5.78;4.95;;;;;;;12.43;80.21;101395.66;5031233;28;20083;-73
2022/05/25 05:24:21;;;;;;;4.75;4.20;;;;;;;12.43;80.48;101391.25;5046713;28;20100;-74
2022/05/25 05:26:47;;;;;;;5.90;4.97;;;;;;;12.44;80.34;101392.97;5011810;28;20368;-73
2022/05/25 05:29:12;;;;;;;10.23;5.47;;;;;;;12.44;80.59;101395.59;5040677;28;20353;-73
2022/05/25 05:31:38;;;;;;;7.47;5.57;;;;;;;12.44;80.84;101398.22;5040609;28;20048;-73
2022/05/25 05:34:04;;;;;;;5.97;5.45;;;;;;;12.45;80.73;101401.69;5045756;28;20188;-73
2022/05/25 05:36:38;;;;;;;6.80;5.53;;;;;;;12.46;80.72;101398.13;5027508;28;20368;-73
2022/05/25 05:39:06;;;;;;;8.32;5.85;;;;;;;12.45;81.24;101397.28;5014131;28;20021;-73
2022/05/25 05:41:41;;;;;;;7.70;5.85;;;;;;;12.46;81.39;101409.53;5026146;28;20032;-73
2022/05/25 05:44:09;;;;;;;6.03;5.13;;;;;;;12.47;81.05;101397.22;5041702;28;20049;-73
2022/05/25 05:46:36;;;;;;;7.90;6.00;;;;;;;12.47;81.31;101398.09;5022790;28;20033;-73
2022/05/25 05:49:04;;;;;;;6.25;5.65;;;;;;;12.49;80.97;101406.75;5017563;28;20046;-73
2022/05/25 05:51:30;;;;;;;15.80;10.07;;;;;;;12.49;81.91;101406.75;5017814;28;20341;-73
2022/05/25 05:53:56;;;;;;;11.35;8.05;;;;;;;12.51;81.74;101416.34;5017268;28;20034;-73
2022/05/25 05:56:21;;;;;;;9.18;7.32;;;;;;;12.50;82.16;101405.00;4999031;28;20152;-73
2022/05/25 05:58:47;;;;;;;13.27;8.73;;;;;;;12.51;82.10;101414.56;5000047;28;20029;-74
2022/05/25 06:01:12;;;;;;;12.52;9.57;;;;;;;12.51;81.95;101416.34;4999182;28;20034;-73
2022/05/25 06:03:37;;;;;;;10.48;9.00;;;;;;;12.52;81.91;101413.69;4999627;28;20361;-73
2022/05/25 06:06:03;;;;;;;10.02;9.05;;;;;;;12.54;81.85;101414.47;5010543;28;20045;-73
2022/05/25 06:08:30;;;;;;;20.10;12.73;;;;;;;12.55;82.18;101424.06;5017814;28;20038;-73
2022/05/25 06:10:56;;;;;;;11.88;10.25;;;;;;;12.55;82.40;101429.34;4998547;28;20202;-73
2022/05/25 06:13:22;;;;;;;13.68;10.85;;;;;;;12.56;82.41;101431.03;5016569;28;20341;-73
2022/05/25 06:21:38;;;;;;;13.48;11.55;;;;;;;12.62;82.27;101429.91;4975316;28;20038;-73
2022/05/25 06:24:04;;;;;;;16.02;12.45;;;;;;;12.63;82.51;101429.00;4974935;28;20223;-74
2022/05/25 06:26:32;;;;;;;14.93;11.38;;;;;;;12.63;82.33;101426.38;4961419;28;20052;-73
2022/05/25 06:28:59;;;;;;;14.35;11.45;;;;;;;12.65;82.48;101435.06;5016983;28;20034;-73
2022/05/25 06:31:25;;;;;;;16.60;12.95;;;;;;;12.67;82.78;101441.09;5000026;28;20029;-73
2022/05/25 06:33:50;;;;;;;16.95;13.70;;;;;;;12.69;82.67;101441.91;4993492;28;20086;-74
2022/05/25 06:36:22;;;;;;;19.77;14.15;;;;;;;12.71;83.12;101439.22;4998187;28;20379;-73
2022/05/25 06:38:48;;;;;;;21.10;13.60;;;;;;;12.72;83.31;101440.94;5017801;28;20061;-74
2022/05/25 06:41:14;;;;;;;15.75;12.30;;;;;;;12.74;83.23;101455.72;5012065;28;20137;-73
2022/05/25 06:43:39;;;;;;;19.10;12.35;;;;;;;12.75;83.03;101443.44;4966510;28;1219146;-73
2022/05/25 06:46:06;;;;;;;14.63;11.18;;;;;;;12.77;83.22;101445.09;5018866;28;20127;-73
2022/05/25 06:48:32;;;;;;;15.95;12.75;;;;;;;12.76;82.90;101446.00;5028138;28;20037;-73
2022/05/25 06:50:57;;;;;;;20.35;13.38;;;;;;;12.76;82.76;101446.00;5023783;28;20039;-73
2022/05/25 06:53:23;;;;;;;18.38;12.88;;;;;;;12.80;82.26;101455.47;5043104;28;20036;-74
2022/05/25 06:55:48;;;;;;;17.08;12.55;;;;;;;12.80;83.01;101447.56;5038400;28;20434;-73
2022/05/25 06:58:13;;;;;;;18.95;12.75;;;;;;;12.83;83.36;101455.34;5013941;28;20254;-73
2022/05/25 07:00:39;;;;;;;16.08;12.63;;;;;;;12.86;83.42;101456.97;5036420;28;20068;-74
2022/05/25 07:03:06;;;;;;;19.20;13.85;;;;;;;12.85;84.08;101463.19;5034728;28;20367;-73
2022/05/25 07:05:32;;;;;;;17.60;12.82;;;;;;;12.84;83.13;101461.44;5031946;28;20030;-73
2022/05/25 07:07:57;;;;;;;19.67;12.55;;;;;;;12.85;83.32;101465.81;5023372;28;20067;-74
2022/05/25 07:10:23;;;;;;;18.20;13.50;;;;;;;12.85;83.24;101466.66;5018791;28;20347;-73
2022/05/25 07:12:48;;;;;;;19.65;13.50;;;;;;;12.84;83.45;101467.59;5018939;28;20037;-73
2022/05/25 07:15:14;;;;;;;16.92;12.57;;;;;;;12.86;82.59;101470.13;5036275;28;20100;-73
2022/05/25 07:17:39;;;;;;;19.55;13.90;;;;;;;12.88;82.75;101468.31;5034320;28;20045;-73
2022/05/25 07:20:06;;;;;;;14.13;12.30;;;;;;;12.91;82.66;101473.44;5032077;28;20098;-73
2022/05/25 07:22:32;;;;;;;13.70;12.13;;;;;;;12.92;82.44;101467.28;5037772;28;20076;-74
2022/05/25 07:24:58;;;;;;;13.38;11.70;;;;;;;12.94;82.42;101467.22;5017985;28;20215;-73
2022/05/25 07:27:24;;;;;;;18.00;11.45;;;;;;;12.96;82.15;101468.84;5037068;28;20051;-74
2022/05/25 07:29:49;;;;;;;12.57;10.95;;;;;;;12.97;82.40;101467.94;5035764;28;20038;-74
2022/05/25 07:32:15;;;;;;;15.55;12.85;;;;;;;13.00;82.48;101473.06;5018232;28;20095;-74
2022/05/25 07:34:54;;;;;;;17.85;12.27;;;;;;;13.01;83.05;101473.94;5017617;28;20280;-74
2022/05/25 07:37:22;;;;;;;15.23;11.82;;;;;;;13.03;82.67;101488.72;5032469;28;20055;-73
2022/05/25 07:40:02;;;;;;;13.57;10.77;;;;;;;13.05;82.67;101473.72;5029304;28;20037;-74
2022/05/25 07:42:29;;;;;;;11.40;10.40;;;;;;;13.10;82.82;101475.31;5033486;28;20372;-73
2022/05/25 07:44:56;;;;;;;14.18;11.02;;;;;;;13.14;83.07;101477.75;5019880;28;20061;-73
2022/05/25 07:47:25;;;;;;;15.98;10.93;;;;;;;13.17;83.26;101469.75;5002944;28;20388;-74
2022/05/25 07:49:50;;;;;;;16.70;10.27;;;;;;;13.20;82.89;101477.50;5013245;28;20258;-74
2022/05/25 07:52:16;;;;;;;12.85;9.38;;;;;;;13.22;83.20;101480.94;5015173;28;20046;-74
2022/05/25 07:54:43;;;;;;;7.88;6.93;;;;;;;13.24;82.16;101483.47;5008066;28;20360;-73
2022/05/25 07:57:09;;;;;;;10.40;7.50;;;;;;;13.25;81.95;101472.91;5010578;28;20121;-73
2022/05/25 07:59:34;;;;;;;8.10;6.75;;;;;;;13.30;81.94;101485.00;5012492;28;20138;-73
2022/05/25 08:07:37;;;;;;;9.60;6.65;;;;;;;13.36;81.76;101490.06;5013106;28;20037;-74
2022/05/25 08:10:13;;;;;;;7.90;5.13;;;;;;;13.38;80.26;101496.94;5012036;28;20041;-73
2022/05/25 08:12:40;;;;;;;10.60;4.97;;;;;;;13.36;79.57;101501.44;4993048;28;20033;-74
2022/05/25 08:15:08;;;;;;;6.22;4.65;;;;;;;13.36;79.78;101498.78;5013886;28;20061;-73
2022/05/25 08:17:34;;;;;;;10.27;4.75;;;;;;;13.37;80.11;101499.66;5011747;28;20237;-73
2022/05/25 08:19:59;;;;;;;6.60;4.30;;;;;;;13.37;79.40;101502.28;5012171;28;20104;-74
2022/05/25 08:22:25;;;;;;;7.85;4.25;;;;;;;13.36;78.69;101495.31;4997661;28;20250;-73
2022/05/25 08:24:51;;;;;;;5.97;4.00;;;;;;;13.35;78.75;101483.94;5014303;28;20046;-73
2022/05/25 08:27:16;;;;;;;5.43;3.90;;;;;;;13.40;78.93;101495.09;5014499;28;20037;-74
2022/05/25 08:29:41;;;;;;;9.52;3.83;;;;;;;13.41;78.71;101490.72;5014281;28;20038;-73
2022/05/25 08:32:07;;;;;;;7.68;3.10;;;;;;;13.42;78.96;101488.03;5015413;28;20111;-74
2022/05/25 08:34:33;;;;;;;6.15;2.60;;;;;;;13.42;77.33;101495.03;4996157;28;20028;-74
2022/05/25 08:36:59;;;;;;;5.82;2.38;;;;;;;13.44;76.71;101498.47;5013279;28;20041;-73
2022/05/25 08:39:24;;;;;;;7.72;2.40;;;;;;;13.46;76.96;101493.16;5014930;28;20252;-73
2022/05/25 08:41:53;;;;;;;4.13;2.08;;;;;;;13.46;77.60;101483.47;4985579;28;20038;-73
2022/05/25 08:44:19;;;;;;;;;;;;;;;13.48;77.52;101491.28;5021974;28;20489;-74
2022/05/25 08:46:45;;;;;;;6.35;2.20;;;;;;;13.50;77.94;101485.06;5033372;28;19913;-74
2022/05/25 08:49:15;;;;;;;3.30;1.80;;;;;;;13.55;77.73;101488.38;5031770;28;20049;-74
2022/05/25 08:51:54;;;;;;;8.32;2.20;;;;;;;13.59;77.41;101494.34;5028479;28;20080;-73
2022/05/25 08:54:21;;;;;;;11.35;2.00;;;;;;;13.60;75.76;101496.03;5034257;28;20029;-73
2022/05/25 08:57:06;;;;;;;5.63;1.77;;;;;;;13.64;75.68;101489.72;5032984;28;20033;-74
2022/05/25 08:59:52;;;;;;;8.07;1.73;;;;;;;13.69;75.76;101487.75;5030762;28;20040;-74
2022/05/25 09:02:30;;;;;;;9.15;1.63;;;;;;;13.73;75.34;101485.84;5020564;28;20041;-74
2022/05/25 09:05:34;;;;;;;5.35;1.23;;;;;;;13.80;73.71;101498.66;5012202;28;20037;-74
2022/05/25 09:08:20;;;;;;;3.42;1.00;;;;;;;13.88;73.63;101497.47;4999131;28;20079;-74
2022/05/25 09:10:51;;;;;;;3.20;1.08;;;;;;;13.90;72.88;101499.13;5032388;28;20037;-74
2022/05/25 09:13:32;;;;;;;6.18;1.00;;;;;;;13.96;72.36;101516.44;5025921;28;20033;-73
2022/05/25 09:16:16;;;;;;;5.95;0.90;;;;;;;13.93;69.92;101514.78;5030742;28;20455;-74
2022/05/25 09:18:54;;;;;;;4.20;0.80;;;;;;;13.90;71.09;101498.25;5035790;28;20272;-74
2022/05/25 09:21:23;;;;;;;7.30;1.33;;;;;;;13.85;70.16;101516.91;5031300;28;20065;-74
2022/05/25 09:23:51;;;;;;;7.80;1.00;;;;;;;13.82;70.79;101509.13;5025905;28;20064;-74
2022/05/25 09:26:17;;;;;;;1.45;0.63;;;;;;;13.83;71.68;101530.13;5004661;28;20026;-74
2022/05/25 09:28:47;;;;;;;4.10;0.70;;;;;;;13.80;70.12;101532.03;5025197;28;20376;-74
2022/05/25 09:31:18;;;;;;;6.85;1.02;;;;;;;13.80;69.22;101530.25;5036688;28;20044;-74
2022/05/25 09:33:51;;;;;;;9.57;0.85;;;;;;;13.84;71.37;101533.59;5036326;28;20037;-74
2022/05/25 09:36:22;;;;;;;6.10;0.73;;;;;;;13.85;68.54;101537.97;5038022;28;20052;-74
2022/05/25 09:39:31;;;;;;;2.33;0.88;;;;;;;13.86;70.81;101529.16;5030543;28;20025;-74
2022/05/25 09:42:03;;;;;;;4.50;0.88;;;;;;;13.86;70.09;101538.81;4957003;29;20066;-74
2022/05/25 09:44:29;;;;;;;7.13;1.40;;;;;;;13.81;68.78;101531.97;4958564;28;20073;-73
2022/05/25 09:46:59;;;;;;;5.60;1.08;;;;;;;13.82;66.51;101544.22;4973756;28;20061;-74
2022/05/25 09:49:27;;;;;;;4.20;0.80;;;;;;;13.86;68.92;101537.06;5011164;28;20040;-74
2022/05/25 09:51:54;;;;;;;8.40;0.80;;;;;;;13.86;68.91;101544.97;5019051;28;20463;-74
2022/05/25 09:54:19;;;;;;;7.82;0.85;;;;;;;13.84;67.78;101554.66;5009609;28;20034;-73
2022/05/25 09:56:55;;;;;;;9.33;1.00;;;;;;;13.83;65.88;101555.63;5012162;28;20029;-73
2022/05/25 09:59:28;;;;;;;5.93;0.60;;;;;;;13.83;67.55;101535.41;5004795;28;20299;-73
2022/05/25 10:01:55;;;;;;;9.30;2.35;;;;;;;13.88;68.35;101543.13;5012329;28;20038;-74
2022/05/25 10:04:51;;;;;;;14.38;1.00;;;;;;;13.92;67.35;101555.22;5016792;28;20104;-73
2022/05/25 10:07:31;;;;;;;7.13;0.90;;;;;;;13.92;66.87;101549.94;5014832;28;20103;-73
2022/05/25 10:10:02;;;;;;;1.75;0.60;;;;;;;13.92;70.60;101552.59;5013953;28;20041;-73
2022/05/25 10:12:40;;;;;;;2.80;0.50;;;;;;;13.93;69.48;101551.63;5013275;28;20340;-73
2022/05/25 10:15:27;;;;;;;1.13;0.50;;;;;;;13.94;71.31;101555.16;5009000;28;20079;-74
2022/05/25 10:17:53;;;;;;;0.82;0.57;;;;;;;13.92;69.99;101560.47;5002183;28;20030;-74
2022/05/25 10:20:25;;;;;;;5.85;0.82;;;;;;;13.93;65.85;101553.44;4995476;28;20041;-74
2022/05/25 10:23:24;;;;;;;12.43;0.60;;;;;;;13.92;65.74;101560.47;4987606;28;20033;-74
2022/05/25 10:25:54;;;;;;;6.63;0.60;;;;;;;13.93;66.98;101559.53;4989896;28;20237;-74
2022/05/25 10:28:32;;;;;;;10.00;1.00;;;;;;;13.92;65.75;101557.00;5004656;28;20180;-74
2022/05/25 10:37:12;;;;;;;1.75;0.55;;;;;;;13.96;65.29;101559.41;5015059;28;20461;-74
2022/05/25 10:39:59;;;;;;;6.93;0.55;;;;;;;13.95;67.67;101555.09;4999195;28;20045;-74
2022/05/25 10:42:26;;;;;;;7.93;0.90;;;;;;;13.96;66.29;101554.16;5003587;28;20069;-74
2022/05/25 10:45:18;;;;;;;3.53;0.85;;;;;;;14.00;64.02;101561.00;5027299;28;20234;-74
2022/05/25 10:47:50;;;;;;;4.57;0.52;;;;;;;14.05;65.88;101552.06;5035829;28;20048;-74
2022/05/25 10:50:42;;;;;;;5.35;0.40;;;;;;;14.12;67.83;101553.50;5029897;28;20079;-73
2022/05/25 10:53:26;;;;;;;3.60;0.50;;;;;;;14.17;66.03;101562.91;5019389;28;20364;-73
2022/05/25 10:56:09;;;;;;;8.82;0.65;;;;;;;14.25;63.73;101562.56;5032994;28;20061;-73
2022/05/25 10:59:02;;;;;;;3.22;0.57;;;;;;;14.27;64.54;101565.97;5026420;28;20132;-74
2022/05/25 11:01:57;;;;;;;3.75;0.80;;;;;;;14.29;63.72;101565.91;5028832;28;20238;-74
2022/05/25 11:05:01;;;;;;;14.82;0.90;;;;;;;14.25;63.50;101556.44;5015782;28;20037;-74
2022/05/25 11:07:33;;;;;;;3.15;0.50;;;;;;;14.27;62.95;101554.59;5034288;28;20044;-74
2022/05/25 11:10:20;;;;;;;6.47;0.82;;;;;;;14.31;65.48;101550.88;5034740;28;20037;-73
2022/05/25 11:13:23;;;;;;;4.60;0.50;;;;;;;14.32;64.39;101548.19;5016949;28;20318;-74
2022/05/25 11:15:55;;;;;;;2.83;0.30;;;;;;;14.33;64.87;101543.75;5023777;28;20037;-74
2022/05/25 11:18:48;;;;;;;3.20;0.68;;;;;;;14.28;63.05;101551.00;5026805;28;20225;-74
2022/05/25 11:21:55;;;;;;;27.83;1.58;;;;;;;14.26;64.49;101540.56;5009439;28;20056;-74
2022/05/25 11:24:42;;;;;;;10.63;1.55;;;;;;;14.25;64.74;101532.72;4992223;28;20041;-74
2022/05/25 11:27:29;;;;;;;12.57;1.20;;;;;;;14.25;63.29;101552.00;4994706;28;20046;-73
2022/05/25 11:30:09;;;;;;;8.45;0.80;;;;;;;14.26;64.86;101550.22;5006881;28;20369;-74
2022/05/25 11:32:55;;;;;;;14.32;0.60;;;;;;;14.28;62.20;101546.63;5024481;28;20037;-73
2022/05/25 11:35:24;;;;;;;15.95;0.80;;;;;;;14.32;62.08;101536.78;5036242;28;20033;-74
2022/05/25 11:38:01;;;;;;;;;;;;;;;14.33;62.06;101528.78;5037964;28;20359;-74
2022/05/25 11:40:46;;;;;;;12.95;1.23;;;;;;;14.37;62.79;101532.16;5027085;28;19905;-73
2022/05/25 11:43:23;;;;;;;6.47;1.30;;;;;;;14.45;62.29;101529.19;5036175;28;20087;-73
2022/05/25 11:45:58;;;;;;;6.28;1.00;;;;;;;14.54;64.00;101520.84;5004175;28;20069;-74
2022/05/25 11:48:23;;;;;;;12.65;1.10;;;;;;;14.58;64.05;101518.03;5027278;28;20026;-74
2022/05/25 11:50:58;;;;;;;6.47;1.20;;;;;;;14.61;64.63;101531.97;5025784;28;20341;-74
2022/05/25 11:53:36;;;;;;;5.20;1.40;;;;;;;14.69;62.58;101508.75;5019839;28;20904;-74
2022/05/25 11:56:17;;;;;;;8.38;1.20;;;;;;;14.74;65.27;101514.69;5024097;28;20097;-73
2022/05/25 11:59:14;;;;;;;11.70;1.27;;;;;;;14.82;65.34;101516.94;5016974;28;20041;-74
2022/05/25 12:01:45;;;;;;;25.65;1.65;;;;;;;14.88;62.69;101543.88;5019771;28;20214;-74
2022/05/25 12:04:34;;;;;;;17.23;1.48;;;;;;;14.89;63.67;101534.19;5022876;28;20064;-73